Time;durP1;ratioP1;P1;durP2;ratioP2;P2;SDS_P1;SDS_P2;PMS_P1;PMS_P2;Temp;Humidity;BMP_temperature;BMP_pressure;BME280_temperature;BME280_humidity;BME280_pressure;Samples;Min_cycle;Max_cycle;Signal;HPM_P1;HPM_P2
2021/12/20 00:01:59;;;;;;;38.72;5.20;;;;;;;;;;5102178;28;20456;-74
2021/12/20 00:04:25;;;;;;;24.77;4.20;;;;;;;;;;5101331;28;20051;-74
2021/12/20 00:06:51;;;;;;;28.52;4.53;;;;;;;;;;5107191;28;20420;-74
2021/12/20 00:09:18;;;;;;;28.65;3.53;;;;;;;;;;5104199;28;20066;-74
2021/12/20 00:11:43;;;;;;;33.00;5.07;;;;;;;;;;5105676;28;20506;-74
2021/12/20 00:14:10;;;;;;;41.15;5.38;;;;;;;;;;5110639;28;20147;-74
2021/12/20 00:16:35;;;;;;;35.25;4.20;;;;;;;;;;5104268;28;20160;-74
2021/12/20 00:19:01;;;;;;;32.70;4.20;;;;;;;;;;5104160;28;20040;-74
2021/12/20 00:21:27;;;;;;;39.20;5.43;;;;;;;;;;5105952;28;20051;-74
2021/12/20 00:23:53;;;;;;;31.50;4.97;;;;;;;;;;5110596;28;20031;-74
2021/12/20 00:26:19;;;;;;;34.00;5.38;;;;;;;;;;5106584;28;20038;-74
2021/12/20 00:28:45;;;;;;;29.75;4.20;;;;;;;;;;5105900;27;20027;-74
2021/12/20 00:31:11;;;;;;;20.42;3.78;;;;;;;;;;5102622;28;20043;-74
2021/12/20 00:33:37;;;;;;;30.80;4.43;;;;;;;;;;5101609;28;20109;-74
2021/12/20 00:36:08;;;;;;;36.65;6.30;;;;;;;;;;5100288;28;20038;-74
2021/12/20 00:41:20;;;;;;;36.40;4.50;;;;;;;;;;5108221;28;20416;-74
2021/12/20 00:43:46;;;;;;;25.20;4.88;;;;;;;;;;5104338;28;20043;-74
2021/12/20 00:46:12;;;;;;;32.08;3.65;;;;;;;;;;5107773;28;20542;-74
2021/12/20 00:48:38;;;;;;;25.02;4.78;;;;;;;;;;5105103;28;20158;-74
2021/12/20 00:51:04;;;;;;;20.23;3.50;;;;;;;;;;5108857;28;20500;-73
2021/12/20 00:53:31;;;;;;;34.95;4.97;;;;;;;;;;5105872;28;20036;-74
2021/12/20 00:55:57;;;;;;;42.90;5.00;;;;;;;;;;5101641;28;20055;-74
2021/12/20 00:58:23;;;;;;;27.70;4.32;;;;;;;;;;5103790;28;20055;-74
2021/12/20 01:00:51;;;;;;;29.52;5.50;;;;;;;;;;5108976;28;20098;-74
2021/12/20 01:03:19;;;;;;;34.03;4.53;;;;;;;;;;5106643;28;20036;-75
2021/12/20 01:05:45;;;;;;;40.33;4.75;;;;;;;;;;5104791;28;20024;-74
2021/12/20 01:08:11;;;;;;;30.02;4.20;;;;;;;;;;5093755;28;20130;-74
2021/12/20 01:10:39;;;;;;;37.22;4.35;;;;;;;;;;5102378;28;20024;-75
2021/12/20 01:13:06;;;;;;;25.40;4.30;;;;;;;;;;5108300;28;20110;-74
2021/12/20 01:15:34;;;;;;;24.10;4.47;;;;;;;;;;5103110;28;20454;-74
2021/12/20 01:18:01;;;;;;;23.70;3.70;;;;;;;;;;5111966;28;20032;-73
2021/12/20 01:20:27;;;;;;;32.38;4.70;;;;;;;;;;5101342;28;20130;-73
2021/12/20 01:22:54;;;;;;;23.40;4.10;;;;;;;;;;5112022;28;20051;-74
2021/12/20 01:25:20;;;;;;;30.27;4.97;;;;;;;;;;5100965;28;20036;-74
2021/12/20 01:27:46;;;;;;;26.58;4.38;;;;;;;;;;5106620;28;20024;-73
2021/12/20 01:30:13;;;;;;;26.33;3.92;;;;;;;;;;5102332;28;20031;-74
2021/12/20 01:32:40;;;;;;;34.90;4.07;;;;;;;;;;5106952;28;20036;-74
2021/12/20 01:35:06;;;;;;;24.98;3.55;;;;;;;;;;5101234;28;20077;-74
2021/12/20 01:37:33;;;;;;;20.98;3.78;;;;;;;;;;5107839;28;20036;-73
2021/12/20 01:39:59;;;;;;;27.30;3.85;;;;;;;;;;5105885;28;20167;-74
2021/12/20 01:42:26;;;;;;;20.70;3.17;;;;;;;;;;5107732;28;20023;-74
2021/12/20 01:44:56;;;;;;;36.42;4.88;;;;;;;;;;5095415;28;20495;-73
2021/12/20 01:47:23;;;;;;;23.27;3.67;;;;;;;;;;5102985;28;20034;-73
2021/12/20 01:50:16;;;;;;;32.33;3.53;;;;;;;;;;5108480;28;20028;-74
2021/12/20 01:52:41;;;;;;;23.13;3.67;;;;;;;;;;5103195;28;20401;-73
2021/12/20 01:55:08;;;;;;;44.38;3.28;;;;;;;;;;5107381;28;20039;-73
2021/12/20 01:57:35;;;;;;;27.15;4.15;;;;;;;;;;5103305;27;20529;-73
2021/12/20 02:00:01;;;;;;;26.92;3.63;;;;;;;;;;5102978;28;20507;-74
2021/12/20 02:02:27;;;;;;;20.08;3.42;;;;;;;;;;5104596;28;20043;-74
2021/12/20 02:05:00;;;;;;;19.90;3.47;;;;;;;;;;5107782;28;20027;-73
2021/12/20 02:07:47;;;;;;;17.15;3.00;;;;;;;;;;5105923;28;21030;-74
2021/12/20 02:10:14;;;;;;;24.02;3.35;;;;;;;;;;5103873;28;20035;-74
2021/12/20 02:12:40;;;;;;;27.25;4.20;;;;;;;;;;5099359;28;20036;-74
2021/12/20 02:15:06;;;;;;;21.55;3.58;;;;;;;;;;5098385;28;20077;-75
2021/12/20 02:17:32;;;;;;;20.48;3.63;;;;;;;;;;5109494;28;20521;-74
2021/12/20 02:19:59;;;;;;;16.00;2.72;;;;;;;;;;5101586;28;20122;-74
2021/12/20 02:22:25;;;;;;;13.60;1.40;;;;;;;;;;5105700;28;20110;-74
2021/12/20 02:24:51;;;;;;;13.27;2.17;;;;;;;;;;5104518;28;20541;-74
2021/12/20 02:27:19;;;;;;;17.65;3.17;;;;;;;;;;5090479;28;20036;-74
2021/12/20 02:30:00;;;;;;;19.60;3.08;;;;;;;;;;5102524;28;20024;-74
2021/12/20 02:37:56;;;;;;;9.93;1.70;;;;;;;;;;5103789;28;20150;-75
2021/12/20 02:40:23;;;;;;;14.57;2.10;;;;;;;;;;5109297;28;20237;-74
2021/12/20 02:42:51;;;;;;;11.50;2.53;;;;;;;;;;5098978;28;20032;-74
2021/12/20 02:45:17;;;;;;;13.40;2.00;;;;;;;;;;5098860;28;20028;-75
2021/12/20 02:47:45;;;;;;;13.02;2.10;;;;;;;;;;5103185;28;20028;-74
2021/12/20 02:50:11;;;;;;;12.23;2.22;;;;;;;;;;5105565;28;20036;-74
2021/12/20 02:52:38;;;;;;;8.70;1.33;;;;;;;;;;5102996;28;20031;-74
2021/12/20 02:55:05;;;;;;;15.43;2.20;;;;;;;;;;5102917;28;20493;-75
2021/12/20 02:57:33;;;;;;;13.68;2.55;;;;;;;;;;5104410;28;20035;-74
2021/12/20 02:59:59;;;;;;;14.73;3.20;;;;;;;;;;5100871;28;20412;-74
2021/12/20 03:02:25;;;;;;;15.95;2.08;;;;;;;;;;5106559;28;20046;-74
2021/12/20 03:04:52;;;;;;;11.65;2.08;;;;;;;;;;5099819;28;20434;-74
2021/12/20 03:07:23;;;;;;;14.00;1.65;;;;;;;;;;5104659;28;20453;-74
2021/12/20 03:09:54;;;;;;;8.50;1.50;;;;;;;;;;5102366;28;20469;-74
2021/12/20 03:12:24;;;;;;;9.93;2.60;;;;;;;;;;5103602;28;20038;-74
2021/12/20 03:14:54;;;;;;;24.50;2.80;;;;;;;;;;5102943;28;20134;-74
2021/12/20 03:17:20;;;;;;;10.55;2.10;;;;;;;;;;5105130;28;20020;-74
2021/12/20 03:19:46;;;;;;;17.60;3.38;;;;;;;;;;5104092;28;20036;-74
2021/12/20 03:22:12;;;;;;;8.02;1.55;;;;;;;;;;5101645;28;20077;-74
2021/12/20 03:24:38;;;;;;;13.15;1.95;;;;;;;;;;5104040;28;20015;-74
2021/12/20 03:27:05;;;;;;;15.25;2.05;;;;;;;;;;5102555;28;20077;-74
2021/12/20 03:29:31;;;;;;;18.77;2.45;;;;;;;;;;5101415;28;20055;-73
2021/12/20 03:31:57;;;;;;;15.27;1.65;;;;;;;;;;5106710;28;20485;-74
2021/12/20 03:34:23;;;;;;;14.55;1.58;;;;;;;;;;5110906;28;20063;-74
2021/12/20 03:36:49;;;;;;;17.08;2.47;;;;;;;;;;5104604;28;20673;-73
2021/12/20 03:39:15;;;;;;;9.43;1.45;;;;;;;;;;5101886;28;20028;-73
2021/12/20 03:41:42;;;;;;;18.55;2.33;;;;;;;;;;5102448;28;20043;-73
2021/12/20 03:44:08;;;;;;;14.73;2.15;;;;;;;;;;5097900;28;20031;-73
2021/12/20 03:46:35;;;;;;;8.63;1.85;;;;;;;;;;5104833;28;20424;-73
2021/12/20 03:49:01;;;;;;;9.77;3.38;;;;;;;;;;5112948;28;20023;-73
2021/12/20 03:51:27;;;;;;;6.70;1.50;;;;;;;;;;5103820;28;20389;-73
2021/12/20 03:53:53;;;;;;;16.20;1.80;;;;;;;;;;5102603;28;20027;-73
2021/12/20 03:56:19;;;;;;;11.77;2.08;;;;;;;;;;5106429;28;20031;-74
2021/12/20 03:58:45;;;;;;;14.40;2.03;;;;;;;;;;5111032;28;20032;-74
2021/12/20 04:01:12;;;;;;;16.58;1.80;;;;;;;;;;5105033;28;20496;-74
2021/12/20 04:03:39;;;;;;;22.95;2.70;;;;;;;;;;5110705;28;20035;-74
2021/12/20 04:06:07;;;;;;;15.77;2.08;;;;;;;;;;5098759;28;20028;-74
2021/12/20 04:08:33;;;;;;;15.80;1.75;;;;;;;;;;5108485;28;20420;-74
2021/12/20 04:10:59;;;;;;;14.55;1.42;;;;;;;;;;5108293;28;20051;-74
2021/12/20 04:13:26;;;;;;;16.20;1.73;;;;;;;;;;5105573;28;20031;-74
2021/12/20 04:15:53;;;;;;;16.77;2.28;;;;;;;;;;5105025;28;20439;-74
2021/12/20 04:18:19;;;;;;;12.52;2.42;;;;;;;;;;5108668;28;20031;-74
2021/12/20 04:20:45;;;;;;;10.82;1.50;;;;;;;;;;5101498;28;20109;-74
2021/12/20 04:23:12;;;;;;;15.45;2.05;;;;;;;;;;5105365;28;20554;-74
2021/12/20 04:25:38;;;;;;;14.93;1.80;;;;;;;;;;5111149;28;20035;-74
2021/12/20 04:28:04;;;;;;;18.02;2.08;;;;;;;;;;5103950;28;20069;-74
2021/12/20 04:30:31;;;;;;;13.50;1.85;;;;;;;;;;5099764;28;20024;-74
2021/12/20 04:32:58;;;;;;;9.98;2.00;;;;;;;;;;5102864;28;20027;-74
2021/12/20 04:35:24;;;;;;;13.52;1.92;;;;;;;;;;5111746;28;20043;-75
2021/12/20 04:37:51;;;;;;;11.38;1.23;;;;;;;;;;5102775;28;20040;-74
2021/12/20 04:40:20;;;;;;;11.82;1.50;;;;;;;;;;5103254;28;20466;-74
2021/12/20 04:42:50;;;;;;;12.52;2.22;;;;;;;;;;5099472;28;20035;-74
2021/12/20 04:45:16;;;;;;;10.77;1.33;;;;;;;;;;5098789;28;20388;-74
2021/12/20 04:47:42;;;;;;;10.20;1.20;;;;;;;;;;5106251;28;20034;-74
2021/12/20 04:50:09;;;;;;;8.52;1.42;;;;;;;;;;5111320;28;20043;-74
2021/12/20 04:52:35;;;;;;;11.50;1.80;;;;;;;;;;5102143;28;20539;-74
2021/12/20 04:55:01;;;;;;;11.85;1.35;;;;;;;;;;5097808;28;20031;-74
2021/12/20 04:57:28;;;;;;;12.18;2.13;;;;;;;;;;5102892;28;20047;-73
2021/12/20 04:59:54;;;;;;;7.00;1.52;;;;;;;;;;5101303;28;20132;-73
2021/12/20 05:02:20;;;;;;;9.30;1.38;;;;;;;;;;5107887;28;20476;-73
2021/12/20 05:04:46;;;;;;;9.45;1.35;;;;;;;;;;5102981;28;20035;-73
2021/12/20 05:07:12;;;;;;;9.00;0.90;;;;;;;;;;5110472;28;20035;-75
2021/12/20 05:09:40;;;;;;;8.32;1.05;;;;;;;;;;5099744;28;20055;-73
2021/12/20 05:12:12;;;;;;;11.52;1.42;;;;;;;;;;5094259;28;20032;-73
2021/12/20 05:14:44;;;;;;;11.15;1.48;;;;;;;;;;5104930;28;20476;-75
2021/12/20 05:17:11;;;;;;;5.55;1.23;;;;;;;;;;5103323;28;20437;-76
2021/12/20 05:19:38;;;;;;;13.52;2.15;;;;;;;;;;5098436;28;20039;-76
2021/12/20 05:22:04;;;;;;;17.05;1.75;;;;;;;;;;5098803;28;20531;-76
2021/12/20 05:24:30;;;;;;;12.35;1.70;;;;;;;;;;5103850;27;20028;-76
2021/12/20 05:26:56;;;;;;;11.98;1.95;;;;;;;;;;5098739;28;20063;-76
2021/12/20 05:29:24;;;;;;;13.18;1.75;;;;;;;;;;5107981;27;20384;-77
2021/12/20 05:31:50;;;;;;;15.27;4.20;;;;;;;;;;5103931;28;20016;-75
2021/12/20 05:34:16;;;;;;;25.98;9.73;;;;;;;;;;5105315;28;20081;-76
2021/12/20 05:36:42;;;;;;;14.80;2.17;;;;;;;;;;5102461;28;20036;-75
2021/12/20 05:39:08;;;;;;;8.45;1.83;;;;;;;;;;5097067;28;20067;-75
2021/12/20 05:41:35;;;;;;;11.55;2.08;;;;;;;;;;5101965;28;20028;-76
2021/12/20 05:44:01;;;;;;;9.73;1.58;;;;;;;;;;5100952;28;20032;-76
2021/12/20 05:46:27;;;;;;;7.40;1.58;;;;;;;;;;5100287;28;20030;-76
2021/12/20 05:48:53;;;;;;;12.35;1.38;;;;;;;;;;5097739;28;20473;-76
2021/12/20 05:51:19;;;;;;;8.98;1.27;;;;;;;;;;5102357;28;20024;-75
2021/12/20 05:53:45;;;;;;;8.77;1.30;;;;;;;;;;5097356;28;20556;-75
2021/12/20 05:56:11;;;;;;;9.38;1.23;;;;;;;;;;5105645;28;20032;-76
2021/12/20 05:58:37;;;;;;;13.70;1.75;;;;;;;;;;5104071;28;20485;-76
2021/12/20 06:01:03;;;;;;;9.40;2.10;;;;;;;;;;5098801;28;20036;-75
2021/12/20 06:03:29;;;;;;;17.50;1.52;;;;;;;;;;5103143;28;20032;-76
2021/12/20 06:05:56;;;;;;;13.25;1.45;;;;;;;;;;5098702;28;20107;-76
2021/12/20 06:08:22;;;;;;;19.10;2.50;;;;;;;;;;5095191;28;20024;-76
2021/12/20 06:10:48;;;;;;;52.85;26.30;;;;;;;;;;5098677;28;20047;-76
2021/12/20 06:13:14;;;;;;;14.50;4.88;;;;;;;;;;5102408;27;20132;-78
2021/12/20 06:15:40;;;;;;;12.57;1.90;;;;;;;;;;5109152;28;20036;-76
2021/12/20 06:18:06;;;;;;;16.25;2.53;;;;;;;;;;5102678;28;20055;-76
2021/12/20 06:20:32;;;;;;;11.60;1.55;;;;;;;;;;5103004;28;20031;-76
2021/12/20 06:22:58;;;;;;;6.97;1.15;;;;;;;;;;5094848;28;20047;-77
2021/12/20 06:25:26;;;;;;;14.00;1.50;;;;;;;;;;5099066;28;20594;-76
2021/12/20 06:27:52;;;;;;;11.38;1.83;;;;;;;;;;5096156;28;20028;-77
2021/12/20 06:30:18;;;;;;;12.32;1.38;;;;;;;;;;5103813;27;20035;-76
2021/12/20 06:32:45;;;;;;;7.20;1.30;;;;;;;;;;5097865;28;20063;-76
2021/12/20 06:35:13;;;;;;;9.05;1.15;;;;;;;;;;5097746;28;20103;-76
2021/12/20 06:37:39;;;;;;;10.48;3.00;;;;;;;;;;5100599;28;20071;-76
2021/12/20 06:40:06;;;;;;;10.95;1.58;;;;;;;;;;5100662;28;20035;-77
2021/12/20 06:42:32;;;;;;;13.00;2.47;;;;;;;;;;5106862;28;20040;-76
2021/12/20 06:44:58;;;;;;;17.15;4.90;;;;;;;;;;5099882;28;20103;-77
2021/12/20 06:47:25;;;;;;;16.70;4.10;;;;;;;;;;5110030;28;20023;-76
2021/12/20 06:49:51;;;;;;;23.05;10.18;;;;;;;;;;5100503;28;20035;-75
2021/12/20 06:52:17;;;;;;;12.45;1.73;;;;;;;;;;5105201;28;20032;-75
2021/12/20 06:54:43;;;;;;;13.27;1.92;;;;;;;;;;5104177;28;20156;-75
2021/12/20 06:57:09;;;;;;;10.18;1.52;;;;;;;;;;5100543;28;20496;-75
2021/12/20 06:59:35;;;;;;;8.68;1.25;;;;;;;;;;5096536;28;20101;-75
2021/12/20 07:02:01;;;;;;;7.30;1.88;;;;;;;;;;5102654;28;20027;-74
2021/12/20 07:04:27;;;;;;;8.80;1.38;;;;;;;;;;5096597;28;20591;-74
2021/12/20 07:06:53;;;;;;;8.18;1.48;;;;;;;;;;5108056;28;20477;-73
2021/12/20 07:09:19;;;;;;;10.38;1.77;;;;;;;;;;5104975;28;20030;-74
2021/12/20 07:11:45;;;;;;;8.32;1.40;;;;;;;;;;5105965;28;20023;-73
2021/12/20 07:14:12;;;;;;;12.05;2.78;;;;;;;;;;5105055;28;20473;-74
2021/12/20 07:16:40;;;;;;;10.18;3.45;;;;;;;;;;5104961;28;20473;-74
2021/12/20 07:19:06;;;;;;;12.63;2.40;;;;;;;;;;5111005;27;20080;-73
2021/12/20 07:21:32;;;;;;;9.88;2.15;;;;;;;;;;5099413;28;20096;-74
2021/12/20 07:23:58;;;;;;;15.10;2.72;;;;;;;;;;5105253;28;20043;-73
2021/12/20 07:26:24;;;;;;;9.10;2.42;;;;;;;;;;5110145;28;20057;-73
2021/12/20 07:28:50;;;;;;;11.73;2.28;;;;;;;;;;5104415;28;20441;-74
2021/12/20 07:31:16;;;;;;;11.13;2.08;;;;;;;;;;5102838;28;20054;-74
2021/12/20 07:33:44;;;;;;;14.38;2.17;;;;;;;;;;5105494;28;20042;-74
2021/12/20 07:36:14;;;;;;;12.05;3.03;;;;;;;;;;5109939;28;20036;-73
2021/12/20 07:38:40;;;;;;;10.60;2.75;;;;;;;;;;5105979;28;20032;-74
2021/12/20 07:41:06;;;;;;;12.95;2.50;;;;;;;;;;5099648;28;20036;-74
2021/12/20 07:43:32;;;;;;;13.27;2.40;;;;;;;;;;5106091;28;20047;-74
2021/12/20 07:45:58;;;;;;;9.05;2.65;;;;;;;;;;5113196;28;20039;-74
2021/12/20 07:48:25;;;;;;;9.00;2.38;;;;;;;;;;5107044;28;20049;-73
2021/12/20 07:50:51;;;;;;;8.63;2.60;;;;;;;;;;5100621;28;20100;-74
2021/12/20 07:53:17;;;;;;;13.77;2.08;;;;;;;;;;5106248;28;20024;-74
2021/12/20 07:55:44;;;;;;;7.13;1.30;;;;;;;;;;5113972;28;20031;-74
2021/12/20 07:58:10;;;;;;;9.55;1.85;;;;;;;;;;5101535;28;20398;-73
2021/12/20 08:00:38;;;;;;;10.63;1.90;;;;;;;;;;5099302;28;20367;-73
2021/12/20 08:03:04;;;;;;;7.90;1.17;;;;;;;;;;5104689;28;20032;-73
2021/12/20 08:05:30;;;;;;;8.50;1.48;;;;;;;;;;5104385;28;20538;-73
2021/12/20 08:07:56;;;;;;;9.00;1.90;;;;;;;;;;5099624;28;20027;-73
2021/12/20 08:10:24;;;;;;;6.50;1.25;;;;;;;;;;5101465;28;20052;-73
2021/12/20 08:12:51;;;;;;;10.27;1.48;;;;;;;;;;5108850;28;20082;-73
2021/12/20 08:15:18;;;;;;;10.48;1.40;;;;;;;;;;5100643;28;20028;-74
2021/12/20 08:17:44;;;;;;;6.72;1.00;;;;;;;;;;5110162;28;20036;-74
2021/12/20 08:20:11;;;;;;;6.32;1.13;;;;;;;;;;5105336;28;20180;-73
2021/12/20 08:22:37;;;;;;;9.77;1.63;;;;;;;;;;5109090;28;20040;-74
2021/12/20 08:25:04;;;;;;;8.48;1.20;;;;;;;;;;5102764;28;20383;-74
2021/12/20 08:27:30;;;;;;;7.45;1.40;;;;;;;;;;5102158;28;20035;-74
2021/12/20 08:29:56;;;;;;;8.95;1.25;;;;;;;;;;5102663;28;20381;-74
2021/12/20 08:32:22;;;;;;;13.45;1.25;;;;;;;;;;5110093;28;20039;-74
2021/12/20 08:34:49;;;;;;;8.65;1.50;;;;;;;;;;5102601;28;20059;-73
2021/12/20 08:37:15;;;;;;;14.18;1.65;;;;;;;;;;5108276;28;20043;-74
2021/12/20 08:39:41;;;;;;;9.63;1.77;;;;;;;;;;5106100;28;22218;-74
2021/12/20 08:42:07;;;;;;;5.95;1.45;;;;;;;;;;5111000;28;20370;-74
2021/12/20 08:44:34;;;;;;;9.20;2.10;;;;;;;;;;5101146;28;20112;-75
2021/12/20 08:47:01;;;;;;;15.88;2.35;;;;;;;;;;5096605;28;20024;-75
2021/12/20 08:49:27;;;;;;;10.77;1.77;;;;;;;;;;5103093;28;20148;-74
2021/12/20 08:51:54;;;;;;;6.30;1.27;;;;;;;;;;5098705;28;20043;-74
2021/12/20 08:54:23;;;;;;;8.18;1.42;;;;;;;;;;5099785;28;20472;-73
2021/12/20 08:56:49;;;;;;;14.75;5.20;;;;;;;;;;5108260;28;20339;-76
2021/12/20 08:59:15;;;;;;;13.38;3.00;;;;;;;;;;5109072;28;20023;-75
2021/12/20 09:01:41;;;;;;;13.20;2.80;;;;;;;;;;5106666;28;20032;-76
2021/12/20 09:04:08;;;;;;;9.75;1.40;;;;;;;;;;5108967;28;20032;-75
2021/12/20 09:06:38;;;;;;;16.88;2.15;;;;;;;;;;5095269;28;20481;-76
2021/12/20 09:09:04;;;;;;;8.20;2.20;;;;;;;;;;5105085;28;20059;-76
2021/12/20 09:11:30;;;;;;;10.20;1.80;;;;;;;;;;5100632;28;20035;-76
2021/12/20 09:13:57;;;;;;;8.60;2.90;;;;;;;;;;5104145;28;21432;-75
2021/12/20 09:16:23;;;;;;;13.00;4.25;;;;;;;;;;5104924;28;20027;-75
2021/12/20 09:18:49;;;;;;;11.32;3.28;;;;;;;;;;5103940;28;20063;-76
2021/12/20 09:21:16;;;;;;;9.10;3.30;;;;;;;;;;5104266;28;20560;-76
2021/12/20 09:23:42;;;;;;;15.90;4.43;;;;;;;;;;5104587;28;20091;-76
2021/12/20 09:26:08;;;;;;;17.10;3.53;;;;;;;;;;5105035;28;20024;-74
2021/12/20 09:28:35;;;;;;;20.23;8.23;;;;;;;;;;5107999;28;20028;-76
2021/12/20 09:31:02;;;;;;;12.68;3.38;;;;;;;;;;5106330;28;20446;-76
2021/12/20 09:33:28;;;;;;;14.70;3.35;;;;;;;;;;5111715;28;20028;-76
2021/12/20 09:35:54;;;;;;;13.65;2.83;;;;;;;;;;5099351;28;20040;-75
2021/12/20 09:38:21;;;;;;;17.70;3.72;;;;;;;;;;5100982;28;20034;-76
2021/12/20 09:43:33;;;;;;;27.63;6.18;;;;;;;;;;5106398;28;20049;-76
2021/12/20 09:45:59;;;;;;;12.95;2.67;;;;;;;;;;5107797;28;20032;-76
2021/12/20 09:48:26;;;;;;;10.30;2.35;;;;;;;;;;5105172;28;20019;-76
2021/12/20 09:50:52;;;;;;;12.95;1.95;;;;;;;;;;5100782;28;20024;-75
2021/12/20 09:53:18;;;;;;;18.27;2.70;;;;;;;;;;5095631;28;20084;-75
2021/12/20 09:55:48;;;;;;;11.90;3.65;;;;;;;;;;5095144;28;20078;-73
2021/12/20 09:58:15;;;;;;;27.60;8.98;;;;;;;;;;5098311;28;20081;-73
2021/12/20 10:00:41;;;;;;;16.92;6.22;;;;;;;;;;5105836;28;21744;-74
2021/12/20 10:03:07;;;;;;;27.80;11.35;;;;;;;;;;5103482;28;20071;-73
2021/12/20 10:05:34;;;;;;;19.83;3.00;;;;;;;;;;5100928;28;20488;-73
2021/12/20 10:08:09;;;;;;;12.32;2.50;;;;;;;;;;5102021;28;20039;-73
2021/12/20 10:10:37;;;;;;;17.10;3.42;;;;;;;;;;5101546;28;20539;-73
2021/12/20 10:13:04;;;;;;;17.55;2.53;;;;;;;;;;5107171;28;20039;-74
2021/12/20 10:15:38;;;;;;;14.68;2.80;;;;;;;;;;5102687;28;20049;-73
2021/12/20 10:18:05;;;;;;;28.98;3.40;;;;;;;;;;5107400;28;20031;-73
2021/12/20 10:20:35;;;;;;;18.60;2.80;;;;;;;;;;5102837;28;20780;-73
2021/12/20 10:23:19;;;;;;;20.10;3.67;;;;;;;;;;5105323;28;20044;-74
2021/12/20 10:25:46;;;;;;;24.05;2.58;;;;;;;;;;5106851;28;20059;-73
2021/12/20 10:28:14;;;;;;;22.33;2.85;;;;;;;;;;5099553;28;20035;-75
2021/12/20 10:30:45;;;;;;;19.92;2.75;;;;;;;;;;5103807;28;20020;-74
2021/12/20 10:33:14;;;;;;;18.13;2.90;;;;;;;;;;5102884;28;20094;-75
2021/12/20 10:35:49;;;;;;;17.25;2.67;;;;;;;;;;5108297;28;20032;-75
2021/12/20 10:38:23;;;;;;;21.77;3.83;;;;;;;;;;5100406;28;20036;-74
2021/12/20 10:40:50;;;;;;;20.30;4.32;;;;;;;;;;5107840;28;20035;-74
2021/12/20 10:43:25;;;;;;;19.25;3.35;;;;;;;;;;5102372;28;20386;-74
2021/12/20 10:45:52;;;;;;;15.65;2.65;;;;;;;;;;5109673;28;20031;-73
2021/12/20 10:48:18;;;;;;;21.60;3.05;;;;;;;;;;5100372;28;20031;-72
2021/12/20 10:50:45;;;;;;;17.15;3.20;;;;;;;;;;5101585;28;20098;-73
2021/12/20 10:53:11;;;;;;;14.52;2.92;;;;;;;;;;5104393;28;20032;-73
2021/12/20 10:55:38;;;;;;;29.35;11.10;;;;;;;;;;5106621;28;20481;-75
2021/12/20 10:58:19;;;;;;;20.85;4.43;;;;;;;;;;5099216;28;20073;-77
2021/12/20 11:00:46;;;;;;;24.60;3.53;;;;;;;;;;5106064;28;20031;-74
2021/12/20 11:03:25;;;;;;;24.42;3.53;;;;;;;;;;5102725;28;20069;-75
2021/12/20 11:06:24;;;;;;;26.15;4.03;;;;;;;;;;5103885;28;20115;-74
2021/12/20 11:11:23;;;;;;;26.80;4.68;;;;;;;;;;5099754;28;20152;-74
2021/12/20 11:13:49;;;;;;;28.48;4.20;;;;;;;;;;5096122;28;20055;-74
2021/12/20 11:16:32;;;;;;;21.13;3.95;;;;;;;;;;5099284;28;20028;-74
2021/12/20 11:18:58;;;;;;;;;;;;;;;;;;5107002;28;20544;-74
2021/12/20 11:21:24;;;;;;;20.17;3.50;;;;;;;;;;5098150;28;19951;-74
2021/12/20 11:23:50;;;;;;;25.35;4.80;;;;;;;;;;5102182;28;20102;-74
2021/12/20 11:26:16;;;;;;;23.48;3.85;;;;;;;;;;5108727;28;20607;-74
2021/12/20 11:28:42;;;;;;;18.98;4.03;;;;;;;;;;5098418;28;20378;-75
2021/12/20 11:31:08;;;;;;;27.38;4.00;;;;;;;;;;5100730;28;20127;-75
2021/12/20 11:33:35;;;;;;;28.60;4.30;;;;;;;;;;5101869;28;20102;-74
2021/12/20 11:36:01;;;;;;;24.73;4.13;;;;;;;;;;5106362;28;20035;-75
2021/12/20 11:38:27;;;;;;;21.30;4.22;;;;;;;;;;5103486;28;20035;-75
2021/12/20 11:40:53;;;;;;;27.65;4.80;;;;;;;;;;5090560;28;20040;-74
2021/12/20 11:43:20;;;;;;;34.30;4.25;;;;;;;;;;5102402;28;20032;-75
2021/12/20 11:45:46;;;;;;;24.17;3.70;;;;;;;;;;5102476;28;20027;-75
2021/12/20 11:48:13;;;;;;;22.45;4.07;;;;;;;;;;5097211;28;20489;-75
2021/12/20 11:50:41;;;;;;;22.08;4.80;;;;;;;;;;5096454;28;20051;-75
2021/12/20 11:53:08;;;;;;;19.40;3.67;;;;;;;;;;5100015;28;20144;-75
2021/12/20 11:55:34;;;;;;;32.17;4.55;;;;;;;;;;5090827;28;20028;-75
2021/12/20 11:58:02;;;;;;;28.73;4.07;;;;;;;;;;5108723;28;20039;-76
2021/12/20 12:00:51;;;;;;;25.88;3.78;;;;;;;;;;5100386;28;20038;-75
2021/12/20 12:03:20;;;;;;;21.58;3.20;;;;;;;;;;5107737;28;20553;-76
2021/12/20 12:05:52;;;;;;;23.92;3.40;;;;;;;;;;5098704;28;20146;-76
2021/12/20 12:08:24;;;;;;;29.10;4.07;;;;;;;;;;5103798;28;20092;-76
2021/12/20 12:10:51;;;;;;;20.63;3.05;;;;;;;;;;5103338;28;20054;-76
2021/12/20 12:13:19;;;;;;;19.30;3.10;;;;;;;;;;5099934;28;20386;-76
2021/12/20 12:16:26;;;;;;;28.98;4.75;;;;;;;;;;5105280;28;20115;-76
2021/12/20 12:18:53;;;;;;;27.02;5.22;;;;;;;;;;5104341;28;20431;-76
2021/12/20 12:21:40;;;;;;;24.10;4.60;;;;;;;;;;5110161;28;20388;-76
2021/12/20 12:24:11;;;;;;;25.15;3.75;;;;;;;;;;5103741;28;20808;-76
2021/12/20 12:26:42;;;;;;;22.35;3.53;;;;;;;;;;5099792;28;20032;-76
2021/12/20 12:29:15;;;;;;;16.67;3.05;;;;;;;;;;5104292;28;20023;-76
2021/12/20 12:32:01;;;;;;;17.92;2.88;;;;;;;;;;5103205;28;20373;-76
2021/12/20 12:34:40;;;;;;;19.65;4.20;;;;;;;;;;5107373;28;20533;-76
2021/12/20 12:37:27;;;;;;;22.15;3.17;;;;;;;;;;5099224;28;20484;-76
2021/12/20 12:40:13;;;;;;;24.42;3.83;;;;;;;;;;5106568;28;20031;-76
2021/12/20 12:42:47;;;;;;;17.55;3.10;;;;;;;;;;5105842;28;20036;-76
2021/12/20 12:45:16;;;;;;;14.68;2.22;;;;;;;;;;5104647;27;20028;-76
2021/12/20 12:47:42;;;;;;;18.33;3.25;;;;;;;;;;5099237;28;20123;-76
2021/12/20 12:50:24;;;;;;;10.30;2.10;;;;;;;;;;5105509;28;20035;-75
2021/12/20 12:52:50;;;;;;;235.55;134.82;;;;;;;;;;5105203;27;20494;-78
2021/12/20 12:55:25;;;;;;;37.90;16.20;;;;;;;;;;5111159;28;20031;-76
2021/12/20 12:57:52;;;;;;;22.60;4.95;;;;;;;;;;5100664;28;20027;-75
2021/12/20 13:00:23;;;;;;;19.67;3.60;;;;;;;;;;5102558;28;20027;-76
2021/12/20 13:02:51;;;;;;;16.45;3.22;;;;;;;;;;5116015;27;20034;-77
2021/12/20 13:05:21;;;;;;;16.45;2.78;;;;;;;;;;5104491;28;20436;-78
2021/12/20 13:07:47;;;;;;;13.98;2.33;;;;;;;;;;5108783;28;20530;-79
2021/12/20 13:10:13;;;;;;;13.60;2.45;;;;;;;;;;5102908;28;20032;-76
2021/12/20 13:12:50;;;;;;;18.90;2.97;;;;;;;;;;5101484;28;20066;-77
2021/12/20 13:17:48;;;;;;;12.90;2.17;;;;;;;;;;5100123;27;20087;-77
2021/12/20 13:23:00;;;;;;;15.85;2.55;;;;;;;;;;5105342;28;20048;-77
2021/12/20 13:25:43;;;;;;;13.80;3.28;;;;;;;;;;5104475;28;20110;-77
2021/12/20 13:28:16;;;;;;;21.08;3.03;;;;;;;;;;5096802;28;20031;-77
2021/12/20 13:30:43;;;;;;;10.15;1.48;;;;;;;;;;5105431;28;20019;-77
2021/12/20 13:33:10;;;;;;;15.38;2.22;;;;;;;;;;5104654;28;20028;-77
2021/12/20 13:35:38;;;;;;;20.67;2.63;;;;;;;;;;5102470;28;20032;-78
2021/12/20 13:38:11;;;;;;;17.30;2.88;;;;;;;;;;5098590;28;20028;-78
2021/12/20 13:40:47;;;;;;;15.27;3.15;;;;;;;;;;5099753;28;20141;-77
2021/12/20 13:43:18;;;;;;;12.35;2.17;;;;;;;;;;5104946;28;20028;-78
2021/12/20 13:45:44;;;;;;;16.00;3.88;;;;;;;;;;5101066;28;20024;-78
2021/12/20 13:48:10;;;;;;;11.55;1.55;;;;;;;;;;5104511;28;20028;-77
2021/12/20 13:50:36;;;;;;;118.30;63.28;;;;;;;;;;5096781;28;20028;-77
2021/12/20 13:53:02;;;;;;;14.00;5.45;;;;;;;;;;5097644;28;20572;-79
2021/12/20 13:55:29;;;;;;;17.63;6.55;;;;;;;;;;5101207;28;20085;-75
2021/12/20 13:57:55;;;;;;;9.32;2.17;;;;;;;;;;5102931;28;20086;-75
2021/12/20 14:00:21;;;;;;;14.23;3.38;;;;;;;;;;5101320;28;20398;-75
2021/12/20 14:02:50;;;;;;;9.13;2.17;;;;;;;;;;5108975;28;20039;-73
2021/12/20 14:05:20;;;;;;;9.05;2.15;;;;;;;;;;5107743;28;20098;-73
2021/12/20 14:07:49;;;;;;;11.38;2.10;;;;;;;;;;5106627;28;20054;-74
2021/12/20 14:10:19;;;;;;;7.20;1.88;;;;;;;;;;5103500;28;20020;-73
2021/12/20 14:12:53;;;;;;;6.82;1.45;;;;;;;;;;5107626;28;20114;-73
2021/12/20 14:15:21;;;;;;;12.30;1.63;;;;;;;;;;5105257;28;20031;-73
2021/12/20 14:17:55;;;;;;;16.70;2.28;;;;;;;;;;5105841;28;20032;-73
2021/12/20 14:20:22;;;;;;;7.57;2.00;;;;;;;;;;5103665;28;20111;-73
2021/12/20 14:22:58;;;;;;;15.82;2.50;;;;;;;;;;5098210;28;20036;-73
2021/12/20 14:25:31;;;;;;;12.95;3.00;;;;;;;;;;5100326;28;20059;-73
2021/12/20 14:28:05;;;;;;;15.65;2.60;;;;;;;;;;5102626;28;20020;-73
2021/12/20 14:30:31;;;;;;;10.68;2.08;;;;;;;;;;5108159;28;20513;-74
2021/12/20 14:32:57;;;;;;;19.52;5.10;;;;;;;;;;5106872;28;20036;-74
2021/12/20 14:35:29;;;;;;;14.65;4.85;;;;;;;;;;5105302;28;20035;-74
2021/12/20 14:37:56;;;;;;;16.05;5.43;;;;;;;;;;5100934;28;20035;-74
2021/12/20 14:40:40;;;;;;;26.85;9.77;;;;;;;;;;5094502;28;20032;-74
2021/12/20 14:43:10;;;;;;;23.83;10.25;;;;;;;;;;5103104;28;20100;-74
2021/12/20 14:45:36;;;;;;;17.90;5.90;;;;;;;;;;5099870;28;20034;-74
2021/12/20 14:48:15;;;;;;;23.10;7.95;;;;;;;;;;5103629;28;20024;-74
2021/12/20 14:50:46;;;;;;;20.85;7.57;;;;;;;;;;5106652;28;20481;-74
2021/12/20 14:53:13;;;;;;;23.88;6.80;;;;;;;;;;5096518;28;20481;-74
2021/12/20 14:55:39;;;;;;;12.18;5.78;;;;;;;;;;5103364;28;20040;-74
2021/12/20 14:58:05;;;;;;;14.45;3.20;;;;;;;;;;5104675;28;20080;-75